Kalaupapa, Hawaii
Current Conditions -  °F | °C
As of 10:54 AM on Tuesday 27 Jan 2015 (Local Time) from PHMK Reporting Station
Few Clouds Few Clouds  
Wind Chill: 76°   Ceiling: Unl
Heat Index: 76°   Visibility: 10mi
Dew Point: 62°   Wind: 9mph
Humidity: 62%   Direction: 20°NNE
Pressure: 29.99"   Gusts: 16mph
Location:  21.19°N, 156.99°W
Report Text: PHMK 272054Z 02008G14KT 10SM FEW025 24/17 A2999 RMK AO2 SLP157 T02440167 50001
Loading
Personal Weather Stations






























Interactive Weather Map New forecast layout! Learn more

10-Day Weather Forecast

Advertisements
Track Severe Weather on mobile